createdAt,value
2022-08-18T00:01:48.052Z,4.67
2022-08-18T00:06:56.803Z,4.60
2022-08-18T00:12:08.314Z,4.43
2022-08-18T00:17:17.298Z,4.80
2022-08-18T00:22:26.890Z,4.43
2022-08-18T00:27:40.806Z,5.30
2022-08-18T00:32:55.459Z,4.63
2022-08-18T00:38:06.777Z,4.77
2022-08-18T00:43:28.393Z,4.60
2022-08-18T00:48:36.088Z,4.20
2022-08-18T00:54:15.470Z,4.60
2022-08-18T00:59:38.804Z,4.20
2022-08-18T01:04:52.978Z,4.05
2022-08-18T01:10:04.899Z,4.40
2022-08-18T01:15:29.000Z,4.80
2022-08-18T01:20:50.674Z,4.40
2022-08-18T01:26:04.854Z,4.57
2022-08-18T01:31:17.225Z,4.57
2022-08-18T01:36:25.050Z,4.70
2022-08-18T01:41:32.864Z,4.80
2022-08-18T01:46:42.705Z,4.90
2022-08-18T01:51:51.429Z,4.90
2022-08-18T01:56:59.003Z,4.90
2022-08-18T02:02:06.171Z,4.77
2022-08-18T02:07:16.711Z,4.50
2022-08-18T02:12:24.875Z,4.93
2022-08-18T02:17:31.674Z,5.03
2022-08-18T02:22:39.090Z,5.07
2022-08-18T02:27:47.367Z,4.70
2022-08-18T02:32:54.289Z,4.70
2022-08-18T02:38:07.033Z,4.40
2022-08-18T02:43:13.530Z,5.00
2022-08-18T02:48:36.661Z,4.60
2022-08-18T02:53:47.145Z,4.80
2022-08-18T02:59:06.074Z,4.67
2022-08-18T03:04:19.250Z,4.60
2022-08-18T03:09:27.215Z,4.78
2022-08-18T03:14:35.119Z,4.50
2022-08-18T03:19:44.457Z,4.27
2022-08-18T03:24:52.906Z,4.60
2022-08-18T03:30:00.796Z,4.63
2022-08-18T03:35:10.780Z,4.23
2022-08-18T03:40:20.791Z,4.27
2022-08-18T03:45:28.904Z,4.23
2022-08-18T03:50:37.362Z,3.80
2022-08-18T03:55:45.024Z,3.63
2022-08-18T04:00:51.775Z,3.60
2022-08-18T04:06:00.254Z,3.80
2022-08-18T04:11:08.563Z,3.10
2022-08-18T04:16:17.882Z,3.50
2022-08-18T04:21:27.175Z,2.73
2022-08-18T04:26:44.018Z,3.37
2022-08-18T04:31:53.037Z,3.80
2022-08-18T04:37:00.695Z,3.70
2022-08-18T04:42:12.554Z,3.07
2022-08-18T04:47:20.972Z,3.30
2022-08-18T04:52:44.965Z,3.30
2022-08-18T04:57:52.629Z,3.60
2022-08-18T05:03:01.387Z,3.40
2022-08-18T05:08:09.482Z,3.40
2022-08-18T05:13:18.012Z,3.40
2022-08-18T05:18:26.595Z,4.47
2022-08-18T05:23:33.515Z,3.80
2022-08-18T05:28:41.557Z,3.57
2022-08-18T05:33:50.652Z,3.93
2022-08-18T05:39:26.033Z,3.93
2022-08-18T05:44:40.454Z,3.77
2022-08-18T05:49:49.555Z,3.80
2022-08-18T05:55:21.440Z,3.77
2022-08-18T06:00:29.685Z,3.90
2022-08-18T06:05:46.443Z,3.60
2022-08-18T06:10:55.386Z,3.50
2022-08-18T06:16:21.149Z,3.40
2022-08-18T06:21:41.188Z,3.83
2022-08-18T06:27:17.150Z,3.50
2022-08-18T06:32:41.841Z,3.00
2022-08-18T06:38:16.325Z,3.10
2022-08-18T06:43:23.994Z,2.80
2022-08-18T06:48:41.142Z,2.83
2022-08-18T06:54:00.759Z,3.00
2022-08-18T06:59:24.240Z,3.00
2022-08-18T07:04:44.234Z,3.25
2022-08-18T07:09:51.370Z,3.27
2022-08-18T07:15:06.000Z,3.50
2022-08-18T07:20:24.607Z,3.13
2022-08-18T07:25:41.884Z,2.93
2022-08-18T07:31:13.567Z,2.90
2022-08-18T07:36:07.409Z,3.30
2022-08-18T07:41:25.758Z,3.13
2022-08-18T07:46:48.900Z,2.80
2022-08-18T07:52:00.149Z,2.90
2022-08-18T07:57:20.250Z,3.20
2022-08-18T08:02:55.151Z,4.60
2022-08-18T08:08:25.492Z,3.57
2022-08-18T08:13:56.784Z,3.60
2022-08-18T08:20:00.068Z,3.40
2022-08-18T08:25:45.328Z,3.40
2022-08-18T08:30:33.444Z,3.07
2022-08-18T08:35:51.100Z,3.60
2022-08-18T08:41:14.389Z,4.00
2022-08-18T08:46:29.139Z,3.47
2022-08-18T08:51:44.343Z,3.50
2022-08-18T08:56:55.949Z,3.70
2022-08-18T09:02:47.974Z,3.67
2022-08-18T09:08:02.277Z,3.63
2022-08-18T09:13:49.932Z,3.80
2022-08-18T09:19:23.136Z,3.70
2022-08-18T09:24:51.006Z,3.90
2022-08-18T09:30:05.382Z,4.90
2022-08-18T09:35:34.839Z,4.10
2022-08-18T09:41:14.012Z,4.10
2022-08-18T09:46:50.257Z,3.80
2022-08-18T09:52:28.568Z,3.97
2022-08-18T09:57:43.982Z,3.47
2022-08-18T10:02:56.430Z,4.10
2022-08-18T10:08:27.029Z,3.37
2022-08-18T10:19:33.833Z,4.10
2022-08-18T10:24:46.013Z,3.85
2022-08-18T10:29:59.210Z,4.03
2022-08-18T10:35:11.138Z,4.10
2022-08-18T10:40:26.510Z,4.10
2022-08-18T10:51:21.566Z,4.17
2022-08-18T10:56:49.034Z,3.90
2022-08-18T11:02:21.158Z,4.00
2022-08-18T11:07:34.249Z,3.93
2022-08-18T11:13:08.778Z,4.27
2022-08-18T11:23:47.743Z,3.90
2022-08-18T11:28:55.950Z,3.90
2022-08-18T11:34:03.845Z,3.50
2022-08-18T11:39:16.844Z,3.80
2022-08-18T11:44:29.457Z,3.60
2022-08-18T11:49:42.274Z,3.62
2022-08-18T11:54:54.415Z,3.17
2022-08-18T12:00:06.302Z,3.30
2022-08-18T12:05:15.504Z,3.27
2022-08-18T12:10:34.657Z,2.97
2022-08-18T12:15:47.521Z,3.50
2022-08-18T12:20:54.628Z,2.90
2022-08-18T12:26:04.418Z,2.60
2022-08-18T12:31:15.174Z,2.70
2022-08-18T12:36:21.654Z,2.70
2022-08-18T12:41:28.909Z,2.83
2022-08-18T12:46:38.047Z,4.77
2022-08-18T12:56:59.813Z,2.40
2022-08-18T13:02:09.521Z,2.67
2022-08-18T13:07:19.188Z,2.87
2022-08-18T13:12:27.422Z,3.13
2022-08-18T13:17:36.760Z,3.80
2022-08-18T13:22:46.626Z,4.10
2022-08-18T13:27:57.478Z,4.27
2022-08-18T13:33:53.462Z,3.90
2022-08-18T13:38:25.549Z,4.47
2022-08-18T13:43:39.391Z,4.77
2022-08-18T13:48:48.150Z,5.80
2022-08-18T13:54:28.668Z,4.37
2022-08-18T22:56:54.001Z,2.72
2022-08-18T23:02:01.654Z,2.90
2022-08-18T23:07:11.369Z,2.80
2022-08-18T23:12:21.707Z,2.67
2022-08-18T23:17:31.402Z,2.50
2022-08-18T23:22:41.442Z,2.70
2022-08-18T23:27:53.900Z,2.47
2022-08-18T23:33:01.272Z,2.50
2022-08-18T23:38:21.835Z,2.30
2022-08-18T23:43:30.064Z,2.50
2022-08-18T23:48:40.225Z,2.40
2022-08-18T23:53:54.661Z,2.80
2022-08-18T23:59:12.763Z,2.53
